sensor_id;sensor_type;location;lat;lon;timestamp;temperature;humidity
39969;DHT22;25648;47.808;19.004;2022-08-21T00:01:47;27.00;69.90
39969;DHT22;25648;47.808;19.004;2022-08-21T00:04:13;26.90;69.90
39969;DHT22;25648;47.808;19.004;2022-08-21T00:06:39;26.90;70.00
39969;DHT22;25648;47.808;19.004;2022-08-21T00:09:07;26.80;70.00
39969;DHT22;25648;47.808;19.004;2022-08-21T00:11:35;26.90;70.20
39969;DHT22;25648;47.808;19.004;2022-08-21T00:14:01;27.00;69.90
39969;DHT22;25648;47.808;19.004;2022-08-21T00:16:27;27.10;69.50
39969;DHT22;25648;47.808;19.004;2022-08-21T00:18:52;27.10;69.50
39969;DHT22;25648;47.808;19.004;2022-08-21T00:21:18;27.00;69.60
39969;DHT22;25648;47.808;19.004;2022-08-21T00:23:44;26.90;69.30
39969;DHT22;25648;47.808;19.004;2022-08-21T00:26:10;26.80;70.10
39969;DHT22;25648;47.808;19.004;2022-08-21T00:28:36;26.80;70.20
39969;DHT22;25648;47.808;19.004;2022-08-21T00:31:02;26.70;70.00
39969;DHT22;25648;47.808;19.004;2022-08-21T00:33:30;26.80;70.20
39969;DHT22;25648;47.808;19.004;2022-08-21T00:35:56;26.80;70.20
39969;DHT22;25648;47.808;19.004;2022-08-21T00:38:22;26.60;70.80
39969;DHT22;25648;47.808;19.004;2022-08-21T00:40:56;26.70;70.60
39969;DHT22;25648;47.808;19.004;2022-08-21T00:43:28;26.40;70.90
39969;DHT22;25648;47.808;19.004;2022-08-21T00:45:55;26.60;71.00
39969;DHT22;25648;47.808;19.004;2022-08-21T00:48:22;26.70;70.40
39969;DHT22;25648;47.808;19.004;2022-08-21T00:51:05;26.80;70.20
39969;DHT22;25648;47.808;19.004;2022-08-21T00:53:32;27.00;69.70
39969;DHT22;25648;47.808;19.004;2022-08-21T00:56:00;26.90;69.90
39969;DHT22;25648;47.808;19.004;2022-08-21T00:58:28;26.80;70.30
39969;DHT22;25648;47.808;19.004;2022-08-21T01:00:56;26.80;69.90
39969;DHT22;25648;47.808;19.004;2022-08-21T01:03:23;26.70;70.20
39969;DHT22;25648;47.808;19.004;2022-08-21T01:05:51;26.60;70.50
39969;DHT22;25648;47.808;19.004;2022-08-21T01:08:18;26.70;70.10
39969;DHT22;25648;47.808;19.004;2022-08-21T01:10:44;26.80;69.90
39969;DHT22;25648;47.808;19.004;2022-08-21T01:13:14;26.80;70.10
39969;DHT22;25648;47.808;19.004;2022-08-21T01:15:44;26.90;69.60
39969;DHT22;25648;47.808;19.004;2022-08-21T01:18:11;26.80;69.90
39969;DHT22;25648;47.808;19.004;2022-08-21T01:20:40;26.70;70.30
39969;DHT22;25648;47.808;19.004;2022-08-21T01:23:07;26.50;70.50
39969;DHT22;25648;47.808;19.004;2022-08-21T01:25:33;26.40;71.10
39969;DHT22;25648;47.808;19.004;2022-08-21T01:28:04;26.40;71.40
39969;DHT22;25648;47.808;19.004;2022-08-21T01:30:34;26.50;71.00
39969;DHT22;25648;47.808;19.004;2022-08-21T01:33:00;26.50;71.20
39969;DHT22;25648;47.808;19.004;2022-08-21T01:35:25;26.60;70.70
39969;DHT22;25648;47.808;19.004;2022-08-21T01:37:51;26.70;70.40
39969;DHT22;25648;47.808;19.004;2022-08-21T01:40:18;26.70;70.60
39969;DHT22;25648;47.808;19.004;2022-08-21T01:42:45;26.70;70.30
39969;DHT22;25648;47.808;19.004;2022-08-21T01:45:12;26.70;70.40
39969;DHT22;25648;47.808;19.004;2022-08-21T01:47:38;26.70;70.30
39969;DHT22;25648;47.808;19.004;2022-08-21T01:50:09;26.80;70.20
39969;DHT22;25648;47.808;19.004;2022-08-21T01:52:35;26.90;69.90
39969;DHT22;25648;47.808;19.004;2022-08-21T01:55:02;26.90;70.10
39969;DHT22;25648;47.808;19.004;2022-08-21T01:57:28;26.70;70.50
39969;DHT22;25648;47.808;19.004;2022-08-21T01:59:54;26.70;70.40
39969;DHT22;25648;47.808;19.004;2022-08-21T02:02:20;26.80;70.10
39969;DHT22;25648;47.808;19.004;2022-08-21T02:04:45;26.80;70.00
39969;DHT22;25648;47.808;19.004;2022-08-21T02:07:11;26.90;70.10
39969;DHT22;25648;47.808;19.004;2022-08-21T02:09:37;27.10;69.20
39969;DHT22;25648;47.808;19.004;2022-08-21T02:12:03;27.10;69.30
39969;DHT22;25648;47.808;19.004;2022-08-21T02:14:29;26.80;70.00
39969;DHT22;25648;47.808;19.004;2022-08-21T02:16:57;26.80;70.40
39969;DHT22;25648;47.808;19.004;2022-08-21T02:19:23;26.80;70.30
39969;DHT22;25648;47.808;19.004;2022-08-21T02:21:48;26.90;70.10
39969;DHT22;25648;47.808;19.004;2022-08-21T02:24:14;27.00;69.10
39969;DHT22;25648;47.808;19.004;2022-08-21T02:26:40;26.80;70.10
39969;DHT22;25648;47.808;19.004;2022-08-21T02:29:06;26.80;70.20
39969;DHT22;25648;47.808;19.004;2022-08-21T02:31:32;26.80;70.30
39969;DHT22;25648;47.808;19.004;2022-08-21T02:33:58;26.90;69.90
39969;DHT22;25648;47.808;19.004;2022-08-21T02:36:23;27.10;69.70
39969;DHT22;25648;47.808;19.004;2022-08-21T02:38:49;27.00;69.60
39969;DHT22;25648;47.808;19.004;2022-08-21T02:41:18;26.90;70.50
39969;DHT22;25648;47.808;19.004;2022-08-21T02:43:45;26.80;70.40
39969;DHT22;25648;47.808;19.004;2022-08-21T02:46:13;26.80;70.10
39969;DHT22;25648;47.808;19.004;2022-08-21T02:48:39;26.80;70.30
39969;DHT22;25648;47.808;19.004;2022-08-21T02:51:15;26.70;70.30
39969;DHT22;25648;47.808;19.004;2022-08-21T02:53:43;26.80;70.00
39969;DHT22;25648;47.808;19.004;2022-08-21T02:56:12;26.90;70.00
39969;DHT22;25648;47.808;19.004;2022-08-21T02:58:41;26.90;69.80
39969;DHT22;25648;47.808;19.004;2022-08-21T03:01:08;26.90;69.90
39969;DHT22;25648;47.808;19.004;2022-08-21T03:03:35;26.90;70.00
39969;DHT22;25648;47.808;19.004;2022-08-21T03:06:02;26.90;69.70
39969;DHT22;25648;47.808;19.004;2022-08-21T03:08:27;26.70;70.00
39969;DHT22;25648;47.808;19.004;2022-08-21T03:10:53;26.70;69.90
39969;DHT22;25648;47.808;19.004;2022-08-21T03:13:20;26.60;70.70
39969;DHT22;25648;47.808;19.004;2022-08-21T03:15:49;26.40;71.30
39969;DHT22;25648;47.808;19.004;2022-08-21T03:18:16;26.40;71.40
39969;DHT22;25648;47.808;19.004;2022-08-21T03:20:43;26.40;70.70
39969;DHT22;25648;47.808;19.004;2022-08-21T03:23:10;26.60;71.20
39969;DHT22;25648;47.808;19.004;2022-08-21T03:25:37;26.50;70.40
39969;DHT22;25648;47.808;19.004;2022-08-21T03:28:08;26.40;71.10
39969;DHT22;25648;47.808;19.004;2022-08-21T03:30:35;26.70;70.50
39969;DHT22;25648;47.808;19.004;2022-08-21T03:33:02;26.70;70.10
39969;DHT22;25648;47.808;19.004;2022-08-21T03:35:28;26.70;70.50
39969;DHT22;25648;47.808;19.004;2022-08-21T03:37:54;26.80;70.00
39969;DHT22;25648;47.808;19.004;2022-08-21T03:40:20;26.90;70.30
39969;DHT22;25648;47.808;19.004;2022-08-21T03:42:46;26.90;69.60
39969;DHT22;25648;47.808;19.004;2022-08-21T03:45:14;26.60;70.60
39969;DHT22;25648;47.808;19.004;2022-08-21T03:48:02;26.60;70.50
39969;DHT22;25648;47.808;19.004;2022-08-21T03:50:32;26.60;70.40
39969;DHT22;25648;47.808;19.004;2022-08-21T03:52:59;26.80;70.30
39969;DHT22;25648;47.808;19.004;2022-08-21T03:55:25;27.00;69.80
39969;DHT22;25648;47.808;19.004;2022-08-21T03:57:51;27.00;69.60
39969;DHT22;25648;47.808;19.004;2022-08-21T04:00:18;26.70;70.30
39969;DHT22;25648;47.808;19.004;2022-08-21T04:02:45;26.60;70.70
39969;DHT22;25648;47.808;19.004;2022-08-21T04:05:12;26.70;70.40
39969;DHT22;25648;47.808;19.004;2022-08-21T04:07:39;26.70;70.60
39969;DHT22;25648;47.808;19.004;2022-08-21T04:10:06;26.50;70.60
39969;DHT22;25648;47.808;19.004;2022-08-21T04:12:32;26.60;71.30
39969;DHT22;25648;47.808;19.004;2022-08-21T04:14:58;26.70;71.00
39969;DHT22;25648;47.808;19.004;2022-08-21T04:17:24;26.90;69.60
39969;DHT22;25648;47.808;19.004;2022-08-21T04:19:50;27.00;70.00
39969;DHT22;25648;47.808;19.004;2022-08-21T04:22:16;27.00;69.50
39969;DHT22;25648;47.808;19.004;2022-08-21T04:24:41;27.00;69.80
39969;DHT22;25648;47.808;19.004;2022-08-21T04:27:07;27.00;69.60
39969;DHT22;25648;47.808;19.004;2022-08-21T04:29:33;27.00;69.60
39969;DHT22;25648;47.808;19.004;2022-08-21T04:31:58;27.10;69.30
39969;DHT22;25648;47.808;19.004;2022-08-21T04:34:24;27.20;69.40
39969;DHT22;25648;47.808;19.004;2022-08-21T04:36:50;27.40;68.70
39969;DHT22;25648;47.808;19.004;2022-08-21T04:39:16;27.30;68.90
39969;DHT22;25648;47.808;19.004;2022-08-21T04:41:42;27.20;69.50
39969;DHT22;25648;47.808;19.004;2022-08-21T04:44:07;26.90;69.70
39969;DHT22;25648;47.808;19.004;2022-08-21T04:46:34;27.00;70.00
39969;DHT22;25648;47.808;19.004;2022-08-21T04:49:00;27.00;70.10
39969;DHT22;25648;47.808;19.004;2022-08-21T04:51:33;27.10;69.50
39969;DHT22;25648;47.808;19.004;2022-08-21T04:54:23;27.20;69.20
39969;DHT22;25648;47.808;19.004;2022-08-21T04:56:58;27.10;69.70
39969;DHT22;25648;47.808;19.004;2022-08-21T04:59:33;27.10;69.10
39969;DHT22;25648;47.808;19.004;2022-08-21T05:02:01;27.10;69.40
39969;DHT22;25648;47.808;19.004;2022-08-21T05:04:30;27.10;69.20
39969;DHT22;25648;47.808;19.004;2022-08-21T05:07:00;27.10;69.60
39969;DHT22;25648;47.808;19.004;2022-08-21T05:09:28;27.30;68.90
39969;DHT22;25648;47.808;19.004;2022-08-21T05:11:55;27.40;68.60
39969;DHT22;25648;47.808;19.004;2022-08-21T05:14:21;27.40;69.10
39969;DHT22;25648;47.808;19.004;2022-08-21T05:16:47;27.40;68.90
39969;DHT22;25648;47.808;19.004;2022-08-21T05:19:13;27.50;68.40
39969;DHT22;25648;47.808;19.004;2022-08-21T05:21:43;27.50;68.40
39969;DHT22;25648;47.808;19.004;2022-08-21T05:24:09;27.50;68.60
39969;DHT22;25648;47.808;19.004;2022-08-21T05:26:34;27.60;68.40
39969;DHT22;25648;47.808;19.004;2022-08-21T05:29:02;27.40;68.70
39969;DHT22;25648;47.808;19.004;2022-08-21T05:31:28;27.40;68.90
39969;DHT22;25648;47.808;19.004;2022-08-21T05:33:53;27.60;67.80
39969;DHT22;25648;47.808;19.004;2022-08-21T05:36:19;27.60;68.20
39969;DHT22;25648;47.808;19.004;2022-08-21T05:38:45;27.40;68.00
39969;DHT22;25648;47.808;19.004;2022-08-21T05:41:12;27.30;68.70
39969;DHT22;25648;47.808;19.004;2022-08-21T05:43:37;27.20;68.60
39969;DHT22;25648;47.808;19.004;2022-08-21T05:46:04;27.30;68.60
39969;DHT22;25648;47.808;19.004;2022-08-21T05:48:31;27.20;68.60
39969;DHT22;25648;47.808;19.004;2022-08-21T05:50:57;27.40;68.20
39969;DHT22;25648;47.808;19.004;2022-08-21T05:53:24;27.60;67.90
39969;DHT22;25648;47.808;19.004;2022-08-21T05:55:50;27.60;67.60
39969;DHT22;25648;47.808;19.004;2022-08-21T05:58:19;27.50;68.00
39969;DHT22;25648;47.808;19.004;2022-08-21T06:00:46;27.60;67.60
39969;DHT22;25648;47.808;19.004;2022-08-21T06:03:23;27.60;67.70
39969;DHT22;25648;47.808;19.004;2022-08-21T06:05:49;27.50;67.80
39969;DHT22;25648;47.808;19.004;2022-08-21T06:08:16;27.40;67.90
39969;DHT22;25648;47.808;19.004;2022-08-21T06:10:42;27.30;68.10
39969;DHT22;25648;47.808;19.004;2022-08-21T06:13:08;27.40;67.80
39969;DHT22;25648;47.808;19.004;2022-08-21T06:15:34;27.40;67.60
39969;DHT22;25648;47.808;19.004;2022-08-21T06:18:00;27.40;67.90
39969;DHT22;25648;47.808;19.004;2022-08-21T06:20:26;27.30;68.10
39969;DHT22;25648;47.808;19.004;2022-08-21T06:22:52;27.50;67.60
39969;DHT22;25648;47.808;19.004;2022-08-21T06:25:17;27.60;68.20
39969;DHT22;25648;47.808;19.004;2022-08-21T06:27:44;27.80;67.50
39969;DHT22;25648;47.808;19.004;2022-08-21T06:30:10;27.90;66.70
39969;DHT22;25648;47.808;19.004;2022-08-21T06:32:36;28.10;67.00
39969;DHT22;25648;47.808;19.004;2022-08-21T06:35:02;28.20;66.20
39969;DHT22;25648;47.808;19.004;2022-08-21T06:37:28;28.00;66.80
39969;DHT22;25648;47.808;19.004;2022-08-21T06:39:54;27.80;66.70
39969;DHT22;25648;47.808;19.004;2022-08-21T06:42:20;27.60;67.00
39969;DHT22;25648;47.808;19.004;2022-08-21T06:44:46;27.60;67.10
39969;DHT22;25648;47.808;19.004;2022-08-21T06:47:15;27.70;67.00
39969;DHT22;25648;47.808;19.004;2022-08-21T06:49:40;27.80;66.80
39969;DHT22;25648;47.808;19.004;2022-08-21T06:52:13;27.70;67.50
39969;DHT22;25648;47.808;19.004;2022-08-21T06:54:39;27.70;67.30
39969;DHT22;25648;47.808;19.004;2022-08-21T06:57:05;27.70;67.00
39969;DHT22;25648;47.808;19.004;2022-08-21T06:59:32;27.90;66.60
39969;DHT22;25648;47.808;19.004;2022-08-21T07:01:59;28.00;66.70
39969;DHT22;25648;47.808;19.004;2022-08-21T07:04:25;28.10;66.10
39969;DHT22;25648;47.808;19.004;2022-08-21T07:06:50;28.10;66.40
39969;DHT22;25648;47.808;19.004;2022-08-21T07:09:16;27.90;66.40
39969;DHT22;25648;47.808;19.004;2022-08-21T07:11:42;27.80;66.60
39969;DHT22;25648;47.808;19.004;2022-08-21T07:14:09;27.70;66.70
39969;DHT22;25648;47.808;19.004;2022-08-21T07:16:35;27.60;67.10
39969;DHT22;25648;47.808;19.004;2022-08-21T07:19:01;27.60;67.50
39969;DHT22;25648;47.808;19.004;2022-08-21T07:21:26;27.70;67.30
39969;DHT22;25648;47.808;19.004;2022-08-21T07:23:52;27.60;67.10
39969;DHT22;25648;47.808;19.004;2022-08-21T07:26:21;27.70;67.00
39969;DHT22;25648;47.808;19.004;2022-08-21T07:28:48;27.80;66.60
39969;DHT22;25648;47.808;19.004;2022-08-21T07:31:15;28.00;66.20
39969;DHT22;25648;47.808;19.004;2022-08-21T07:33:42;28.10;66.20
39969;DHT22;25648;47.808;19.004;2022-08-21T07:36:08;27.80;66.60
39969;DHT22;25648;47.808;19.004;2022-08-21T07:38:34;27.80;67.00
39969;DHT22;25648;47.808;19.004;2022-08-21T07:41:01;27.80;67.10
39969;DHT22;25648;47.808;19.004;2022-08-21T07:43:28;27.60;67.30
39969;DHT22;25648;47.808;19.004;2022-08-21T07:45:55;27.60;67.10
39969;DHT22;25648;47.808;19.004;2022-08-21T07:48:21;27.70;67.10
39969;DHT22;25648;47.808;19.004;2022-08-21T07:50:48;28.10;66.80
39969;DHT22;25648;47.808;19.004;2022-08-21T07:53:14;28.30;66.70
39969;DHT22;25648;47.808;19.004;2022-08-21T07:55:40;28.50;66.30
39969;DHT22;25648;47.808;19.004;2022-08-21T07:58:06;28.60;65.70
39969;DHT22;25648;47.808;19.004;2022-08-21T08:00:32;28.90;65.60
39969;DHT22;25648;47.808;19.004;2022-08-21T08:02:59;29.10;65.40
39969;DHT22;25648;47.808;19.004;2022-08-21T08:05:27;29.00;65.40
39969;DHT22;25648;47.808;19.004;2022-08-21T08:07:53;29.20;64.40
39969;DHT22;25648;47.808;19.004;2022-08-21T08:10:20;29.10;64.80
39969;DHT22;25648;47.808;19.004;2022-08-21T08:12:46;29.10;64.60
39969;DHT22;25648;47.808;19.004;2022-08-21T08:15:15;29.00;64.60
39969;DHT22;25648;47.808;19.004;2022-08-21T08:17:41;29.00;65.30
39969;DHT22;25648;47.808;19.004;2022-08-21T08:20:09;29.10;64.80
39969;DHT22;25648;47.808;19.004;2022-08-21T08:22:36;29.10;64.90
39969;DHT22;25648;47.808;19.004;2022-08-21T08:25:03;29.40;64.40
39969;DHT22;25648;47.808;19.004;2022-08-21T08:27:30;29.40;64.10
39969;DHT22;25648;47.808;19.004;2022-08-21T08:29:56;29.10;64.20
39969;DHT22;25648;47.808;19.004;2022-08-21T08:32:23;28.90;64.90
39969;DHT22;25648;47.808;19.004;2022-08-21T08:34:49;28.80;65.80
39969;DHT22;25648;47.808;19.004;2022-08-21T08:37:18;29.00;64.90
39969;DHT22;25648;47.808;19.004;2022-08-21T08:39:44;28.70;65.00
39969;DHT22;25648;47.808;19.004;2022-08-21T08:42:36;28.70;65.50
39969;DHT22;25648;47.808;19.004;2022-08-21T08:45:04;28.80;65.30
39969;DHT22;25648;47.808;19.004;2022-08-21T08:47:32;28.70;65.60
39969;DHT22;25648;47.808;19.004;2022-08-21T08:50:11;28.60;65.10
39969;DHT22;25648;47.808;19.004;2022-08-21T08:52:45;28.50;65.70
39969;DHT22;25648;47.808;19.004;2022-08-21T08:55:21;28.60;65.60
39969;DHT22;25648;47.808;19.004;2022-08-21T08:57:50;28.70;65.70
39969;DHT22;25648;47.808;19.004;2022-08-21T09:00:19;28.70;66.00
39969;DHT22;25648;47.808;19.004;2022-08-21T09:02:47;28.60;65.70
39969;DHT22;25648;47.808;19.004;2022-08-21T09:05:40;28.60;65.40
39969;DHT22;25648;47.808;19.004;2022-08-21T09:11:36;28.40;65.90
39969;DHT22;25648;47.808;19.004;2022-08-21T09:16:55;28.10;66.70
39969;DHT22;25648;47.808;19.004;2022-08-21T09:25:31;28.80;65.50
39969;DHT22;25648;47.808;19.004;2022-08-21T09:27:58;29.20;65.30
39969;DHT22;25648;47.808;19.004;2022-08-21T09:32:36;29.30;64.10
39969;DHT22;25648;47.808;19.004;2022-08-21T09:35:10;29.20;64.80
39969;DHT22;25648;47.808;19.004;2022-08-21T09:37:56;29.10;64.70
39969;DHT22;25648;47.808;19.004;2022-08-21T09:43:03;29.30;65.20
39969;DHT22;25648;47.808;19.004;2022-08-21T09:45:30;29.30;64.40
39969;DHT22;25648;47.808;19.004;2022-08-21T09:47:56;29.20;65.10
39969;DHT22;25648;47.808;19.004;2022-08-21T09:50:27;29.00;65.20
39969;DHT22;25648;47.808;19.004;2022-08-21T09:52:58;29.00;65.30
39969;DHT22;25648;47.808;19.004;2022-08-21T09:55:39;29.10;65.20
39969;DHT22;25648;47.808;19.004;2022-08-21T09:58:32;29.30;64.90
39969;DHT22;25648;47.808;19.004;2022-08-21T10:01:00;29.40;65.00
39969;DHT22;25648;47.808;19.004;2022-08-21T10:03:26;29.70;64.90
39969;DHT22;25648;47.808;19.004;2022-08-21T10:06:03;29.70;63.40
39969;DHT22;25648;47.808;19.004;2022-08-21T10:08:35;29.50;64.80
39969;DHT22;25648;47.808;19.004;2022-08-21T10:11:05;29.60;64.60
39969;DHT22;25648;47.808;19.004;2022-08-21T10:14:15;29.80;64.20
39969;DHT22;25648;47.808;19.004;2022-08-21T10:22:02;30.40;63.60
39969;DHT22;25648;47.808;19.004;2022-08-21T10:24:38;30.50;63.00
39969;DHT22;25648;47.808;19.004;2022-08-21T10:35:18;30.10;64.00
39969;DHT22;25648;47.808;19.004;2022-08-21T10:40:49;30.40;62.80
39969;DHT22;25648;47.808;19.004;2022-08-21T10:43:27;30.40;63.90
39969;DHT22;25648;47.808;19.004;2022-08-21T10:48:55;30.60;63.10
39969;DHT22;25648;47.808;19.004;2022-08-21T10:51:41;30.80;62.60
39969;DHT22;25648;47.808;19.004;2022-08-21T10:56:47;31.00;62.70
39969;DHT22;25648;47.808;19.004;2022-08-21T11:02:29;31.00;62.10
39969;DHT22;25648;47.808;19.004;2022-08-21T11:05:05;30.80;62.40
39969;DHT22;25648;47.808;19.004;2022-08-21T11:07:53;31.00;62.70
39969;DHT22;25648;47.808;19.004;2022-08-21T11:13:03;31.40;62.20
39969;DHT22;25648;47.808;19.004;2022-08-21T11:15:52;31.70;62.20
39969;DHT22;25648;47.808;19.004;2022-08-21T11:18:34;31.70;61.40
39969;DHT22;25648;47.808;19.004;2022-08-21T11:23:46;31.40;60.90
39969;DHT22;25648;47.808;19.004;2022-08-21T11:26:34;31.10;62.10
39969;DHT22;25648;47.808;19.004;2022-08-21T11:29:17;30.90;62.30
39969;DHT22;25648;47.808;19.004;2022-08-21T11:34:47;30.80;63.00
39969;DHT22;25648;47.808;19.004;2022-08-21T11:37:27;31.00;62.30
39969;DHT22;25648;47.808;19.004;2022-08-21T11:40:15;31.20;62.30
39969;DHT22;25648;47.808;19.004;2022-08-21T11:48:05;31.70;61.40
39969;DHT22;25648;47.808;19.004;2022-08-21T11:50:36;31.90;61.20
39969;DHT22;25648;47.808;19.004;2022-08-21T11:53:09;32.00;61.20
39969;DHT22;25648;47.808;19.004;2022-08-21T11:55:52;32.00;61.00
39969;DHT22;25648;47.808;19.004;2022-08-21T11:58:35;32.20;60.80
39969;DHT22;25648;47.808;19.004;2022-08-21T12:01:15;32.20;60.20
39969;DHT22;25648;47.808;19.004;2022-08-21T12:03:57;32.20;60.90
39969;DHT22;25648;47.808;19.004;2022-08-21T12:06:33;32.10;60.70
39969;DHT22;25648;47.808;19.004;2022-08-21T12:09:30;32.00;60.80
39969;DHT22;25648;47.808;19.004;2022-08-21T12:14:46;32.00;61.10
39969;DHT22;25648;47.808;19.004;2022-08-21T12:17:24;32.30;60.80
39969;DHT22;25648;47.808;19.004;2022-08-21T12:20:14;32.40;61.10
39969;DHT22;25648;47.808;19.004;2022-08-21T12:22:41;32.50;60.90
39969;DHT22;25648;47.808;19.004;2022-08-21T12:25:18;32.50;60.90
39969;DHT22;25648;47.808;19.004;2022-08-21T12:27:52;32.60;60.80
39969;DHT22;25648;47.808;19.004;2022-08-21T12:32:58;32.60;60.00
39969;DHT22;25648;47.808;19.004;2022-08-21T12:35:30;32.20;60.70
39969;DHT22;25648;47.808;19.004;2022-08-21T12:38:06;32.30;60.40
39969;DHT22;25648;47.808;19.004;2022-08-21T12:40:40;32.40;60.60
39969;DHT22;25648;47.808;19.004;2022-08-21T12:43:13;32.30;60.60
39969;DHT22;25648;47.808;19.004;2022-08-21T12:45:45;32.30;60.90
39969;DHT22;25648;47.808;19.004;2022-08-21T12:51:12;32.30;60.30
39969;DHT22;25648;47.808;19.004;2022-08-21T12:53:44;32.30;60.30
39969;DHT22;25648;47.808;19.004;2022-08-21T12:56:14;32.00;61.20
39969;DHT22;25648;47.808;19.004;2022-08-21T12:58:45;32.00;61.40
39969;DHT22;25648;47.808;19.004;2022-08-21T13:03:58;32.00;61.10
39969;DHT22;25648;47.808;19.004;2022-08-21T13:06:30;31.90;61.00
39969;DHT22;25648;47.808;19.004;2022-08-21T13:09:03;31.70;61.40
39969;DHT22;25648;47.808;19.004;2022-08-21T13:11:29;31.60;61.40
39969;DHT22;25648;47.808;19.004;2022-08-21T13:13:57;31.80;61.40
39969;DHT22;25648;47.808;19.004;2022-08-21T13:16:26;31.90;61.00
39969;DHT22;25648;47.808;19.004;2022-08-21T13:19:01;31.80;60.90
39969;DHT22;25648;47.808;19.004;2022-08-21T13:21:49;31.80;61.50
39969;DHT22;25648;47.808;19.004;2022-08-21T13:24:17;32.00;61.20
39969;DHT22;25648;47.808;19.004;2022-08-21T13:26:43;32.00;61.30
39969;DHT22;25648;47.808;19.004;2022-08-21T13:29:11;32.00;61.10
39969;DHT22;25648;47.808;19.004;2022-08-21T13:31:39;32.00;60.90
39969;DHT22;25648;47.808;19.004;2022-08-21T13:34:06;32.10;61.00
39969;DHT22;25648;47.808;19.004;2022-08-21T13:36:35;32.10;61.20
39969;DHT22;25648;47.808;19.004;2022-08-21T13:39:07;32.20;60.80
39969;DHT22;25648;47.808;19.004;2022-08-21T13:41:36;32.20;61.10
39969;DHT22;25648;47.808;19.004;2022-08-21T13:44:06;32.10;61.10
39969;DHT22;25648;47.808;19.004;2022-08-21T13:46:38;32.20;61.10
39969;DHT22;25648;47.808;19.004;2022-08-21T13:49:05;32.20;60.80
39969;DHT22;25648;47.808;19.004;2022-08-21T13:51:32;32.10;60.60
39969;DHT22;25648;47.808;19.004;2022-08-21T13:53:58;32.00;61.10
39969;DHT22;25648;47.808;19.004;2022-08-21T13:56:33;31.90;61.10
39969;DHT22;25648;47.808;19.004;2022-08-21T13:59:06;31.90;61.40
39969;DHT22;25648;47.808;19.004;2022-08-21T14:02:08;31.70;61.00
39969;DHT22;25648;47.808;19.004;2022-08-21T14:04:38;31.60;61.40
39969;DHT22;25648;47.808;19.004;2022-08-21T14:07:24;31.60;61.70
39969;DHT22;25648;47.808;19.004;2022-08-21T14:09:51;31.70;61.50
39969;DHT22;25648;47.808;19.004;2022-08-21T14:12:29;31.30;61.70
39969;DHT22;25648;47.808;19.004;2022-08-21T14:14:58;31.20;62.00
39969;DHT22;25648;47.808;19.004;2022-08-21T14:17:31;31.20;62.20
39969;DHT22;25648;47.808;19.004;2022-08-21T14:19:57;31.00;62.00
39969;DHT22;25648;47.808;19.004;2022-08-21T14:22:42;30.90;62.40
39969;DHT22;25648;47.808;19.004;2022-08-21T14:25:12;30.90;62.40
39969;DHT22;25648;47.808;19.004;2022-08-21T14:30:41;31.00;62.60
39969;DHT22;25648;47.808;19.004;2022-08-21T14:33:13;31.20;62.20
39969;DHT22;25648;47.808;19.004;2022-08-21T14:35:40;31.40;61.80
39969;DHT22;25648;47.808;19.004;2022-08-21T14:38:20;31.30;61.60
39969;DHT22;25648;47.808;19.004;2022-08-21T14:40:49;31.20;61.80
39969;DHT22;25648;47.808;19.004;2022-08-21T14:43:15;31.30;62.00
39969;DHT22;25648;47.808;19.004;2022-08-21T14:45:41;31.40;62.00
39969;DHT22;25648;47.808;19.004;2022-08-21T14:48:09;31.30;62.10
39969;DHT22;25648;47.808;19.004;2022-08-21T14:50:35;31.20;61.60
39969;DHT22;25648;47.808;19.004;2022-08-21T14:53:01;31.00;61.70
39969;DHT22;25648;47.808;19.004;2022-08-21T14:55:27;30.90;62.30
39969;DHT22;25648;47.808;19.004;2022-08-21T14:57:54;30.80;62.50
39969;DHT22;25648;47.808;19.004;2022-08-21T15:00:23;30.50;62.50
39969;DHT22;25648;47.808;19.004;2022-08-21T15:02:49;30.70;63.30
39969;DHT22;25648;47.808;19.004;2022-08-21T15:05:15;30.80;62.50
39969;DHT22;25648;47.808;19.004;2022-08-21T15:07:41;30.90;62.50
39969;DHT22;25648;47.808;19.004;2022-08-21T15:10:08;30.80;62.20
39969;DHT22;25648;47.808;19.004;2022-08-21T15:12:34;30.60;63.20
39969;DHT22;25648;47.808;19.004;2022-08-21T15:15:00;30.50;63.30
39969;DHT22;25648;47.808;19.004;2022-08-21T15:17:27;30.40;63.40
39969;DHT22;25648;47.808;19.004;2022-08-21T15:20:58;30.20;63.60
39969;DHT22;25648;47.808;19.004;2022-08-21T15:23:23;30.20;64.00
39969;DHT22;25648;47.808;19.004;2022-08-21T15:25:50;30.40;64.10
39969;DHT22;25648;47.808;19.004;2022-08-21T15:28:17;30.40;63.80
39969;DHT22;25648;47.808;19.004;2022-08-21T15:30:44;30.50;63.70
39969;DHT22;25648;47.808;19.004;2022-08-21T15:33:11;30.60;63.50
39969;DHT22;25648;47.808;19.004;2022-08-21T15:35:37;30.40;63.10
39969;DHT22;25648;47.808;19.004;2022-08-21T15:38:03;30.30;63.70
39969;DHT22;25648;47.808;19.004;2022-08-21T15:40:29;30.40;63.70
39969;DHT22;25648;47.808;19.004;2022-08-21T15:43:00;30.40;63.50
39969;DHT22;25648;47.808;19.004;2022-08-21T15:45:27;30.00;64.10
39969;DHT22;25648;47.808;19.004;2022-08-21T15:47:54;29.90;65.00
39969;DHT22;25648;47.808;19.004;2022-08-21T15:50:20;30.20;64.70
39969;DHT22;25648;47.808;19.004;2022-08-21T15:52:46;30.20;64.90
39969;DHT22;25648;47.808;19.004;2022-08-21T15:55:12;30.10;64.60
39969;DHT22;25648;47.808;19.004;2022-08-21T15:57:44;30.10;64.90
39969;DHT22;25648;47.808;19.004;2022-08-21T16:00:22;30.20;65.10
39969;DHT22;25648;47.808;19.004;2022-08-21T16:02:51;30.30;65.40
39969;DHT22;25648;47.808;19.004;2022-08-21T16:05:17;30.40;65.20
39969;DHT22;25648;47.808;19.004;2022-08-21T16:07:44;30.60;64.90
39969;DHT22;25648;47.808;19.004;2022-08-21T16:10:11;30.60;65.30
39969;DHT22;25648;47.808;19.004;2022-08-21T16:12:43;30.30;66.70
39969;DHT22;25648;47.808;19.004;2022-08-21T16:15:12;30.30;66.00
39969;DHT22;25648;47.808;19.004;2022-08-21T16:17:39;30.30;65.80
39969;DHT22;25648;47.808;19.004;2022-08-21T16:20:08;30.00;67.40
39969;DHT22;25648;47.808;19.004;2022-08-21T16:22:34;29.80;68.50
39969;DHT22;25648;47.808;19.004;2022-08-21T16:25:00;29.80;68.50
39969;DHT22;25648;47.808;19.004;2022-08-21T16:27:26;29.80;68.20
39969;DHT22;25648;47.808;19.004;2022-08-21T16:29:55;29.60;68.40
39969;DHT22;25648;47.808;19.004;2022-08-21T16:32:24;29.50;68.30
39969;DHT22;25648;47.808;19.004;2022-08-21T16:34:50;29.30;69.50
39969;DHT22;25648;47.808;19.004;2022-08-21T16:37:16;28.90;70.20
39969;DHT22;25648;47.808;19.004;2022-08-21T16:39:42;28.80;70.70